Terminal Aerodrome Forecast
Issued by NWS Pueblo, CO

Home | Current Version | Previous Version | Text Only | Print | Product List | Glossary On
Versions: 1 2 3 4 5 6 7 8 9 10 11 12 13 14 15 16 17 18 19 20 21 22 23 24 25 26 27 28 29 30 31 32 33 34
681
FTUS45 KPUB 221134
TAFALS
TAF
KALS 221134Z 2212/2312 VRB04KT P6SM SCT100 BKN150
     FM221900 05009G19KT P6SM VCTS FEW040 SCT060CB BKN100
      TEMPO 2223/2303 VRB20G35KT 3SM -TSRA BKN030CB
     FM230400 35008KT P6SM SCT090 BKN150=

USA.gov is the U.S. government's official web portal to all federal, state and local government web resources and services.